createdAt,value
2018-11-25T00:00:23.274Z,29.70
2018-11-25T00:02:52.262Z,30.50
2018-11-25T00:05:21.280Z,30.90
2018-11-25T00:07:50.065Z,32.37
2018-11-25T00:10:19.041Z,31.20
2018-11-25T00:12:47.952Z,31.30
2018-11-25T00:15:16.817Z,34.07
2018-11-25T00:17:45.829Z,33.03
2018-11-25T00:20:14.609Z,33.83
2018-11-25T00:22:43.857Z,32.20
2018-11-25T00:25:13.862Z,29.60
2018-11-25T00:27:42.990Z,30.00
2018-11-25T00:30:14.189Z,30.13
2018-11-25T00:32:43.147Z,30.07
2018-11-25T00:35:14.524Z,29.63
2018-11-25T00:37:48.141Z,30.17
2018-11-25T00:40:12.738Z,31.03
2018-11-25T00:42:44.535Z,30.57
2018-11-25T00:45:20.686Z,33.33
2018-11-25T00:47:50.473Z,32.50
2018-11-25T00:50:19.331Z,30.77
2018-11-25T00:52:48.254Z,31.87
2018-11-25T00:55:17.862Z,28.03
2018-11-25T00:57:47.469Z,26.60
2018-11-25T01:00:17.589Z,25.60
2018-11-25T01:02:47.064Z,23.50
2018-11-25T01:05:16.019Z,23.93
2018-11-25T01:07:45.005Z,21.33
2018-11-25T01:10:16.477Z,23.13
2018-11-25T01:12:45.942Z,21.83
2018-11-25T01:15:15.547Z,22.10
2018-11-25T01:17:44.376Z,23.03
2018-11-25T01:20:23.890Z,22.90
2018-11-25T01:22:52.786Z,21.80
2018-11-25T01:25:21.751Z,21.43
2018-11-25T01:27:53.689Z,24.13
2018-11-25T01:30:22.561Z,23.10
2018-11-25T01:32:52.182Z,24.87
2018-11-25T01:35:21.782Z,24.73
2018-11-25T01:37:50.728Z,24.87
2018-11-25T01:40:26.680Z,25.57
2018-11-25T01:42:55.934Z,28.23
2018-11-25T01:45:24.690Z,27.30
2018-11-25T01:47:53.562Z,25.97
2018-11-25T01:50:22.400Z,30.47
2018-11-25T01:52:51.519Z,30.90
2018-11-25T01:55:20.898Z,32.23
2018-11-25T01:57:50.527Z,31.77
2018-11-25T02:00:21.644Z,31.33
2018-11-25T02:02:50.560Z,32.70
2018-11-25T02:05:19.563Z,30.43
2018-11-25T02:07:55.322Z,30.70
2018-11-25T02:10:24.133Z,30.27
2018-11-25T02:12:53.057Z,27.53
2018-11-25T02:15:22.190Z,27.63
2018-11-25T02:17:51.043Z,28.27
2018-11-25T02:20:23.955Z,30.43
2018-11-25T02:22:54.008Z,29.43
2018-11-25T02:25:22.769Z,29.60
2018-11-25T02:27:51.846Z,30.37
2018-11-25T02:30:20.805Z,28.50
2018-11-25T02:32:49.726Z,31.47
2018-11-25T02:35:18.912Z,30.93
2018-11-25T02:37:47.810Z,32.20
2018-11-25T02:40:17.221Z,31.87
2018-11-25T02:42:49.406Z,30.87
2018-11-25T02:45:19.173Z,27.93
2018-11-25T02:47:48.417Z,27.70
2018-11-25T02:50:30.438Z,26.77
2018-11-25T02:53:00.365Z,24.80
2018-11-25T02:55:29.599Z,25.50
2018-11-25T02:57:58.569Z,24.23
2018-11-25T03:00:27.596Z,24.03
2018-11-25T03:02:56.724Z,24.93
2018-11-25T03:05:25.715Z,25.83
2018-11-25T03:07:54.559Z,23.10
2018-11-25T03:10:23.833Z,23.90
2018-11-25T03:12:53.136Z,24.43
2018-11-25T03:15:21.946Z,24.63
2018-11-25T03:17:51.043Z,24.73
2018-11-25T03:20:19.902Z,23.97
2018-11-25T03:22:48.563Z,25.20
2018-11-25T03:25:18.836Z,24.57
2018-11-25T03:27:47.955Z,26.03
2018-11-25T03:30:17.872Z,24.37
2018-11-25T03:32:47.848Z,25.43
2018-11-25T03:35:16.665Z,26.43
2018-11-25T03:37:45.497Z,26.03
2018-11-25T03:40:19.165Z,27.13
2018-11-25T03:42:48.243Z,29.30
2018-11-25T03:45:20.217Z,27.67
2018-11-25T03:47:49.103Z,27.10
2018-11-25T03:50:18.026Z,27.87
2018-11-25T03:52:47.225Z,27.00
2018-11-25T03:55:17.702Z,26.77
2018-11-25T03:57:46.620Z,25.10
2018-11-25T04:00:17.593Z,24.77
2018-11-25T04:02:46.318Z,25.00
2018-11-25T04:05:16.181Z,24.80
2018-11-25T04:07:45.134Z,24.03
2018-11-25T04:10:14.922Z,26.17
2018-11-25T04:12:44.062Z,22.87
2018-11-25T04:15:16.010Z,21.77
2018-11-25T04:17:45.327Z,22.07
2018-11-25T04:20:16.239Z,21.80
2018-11-25T04:22:45.824Z,23.90
2018-11-25T04:25:14.677Z,22.50
2018-11-25T04:27:43.632Z,22.13
2018-11-25T04:30:16.885Z,23.27
2018-11-25T04:32:46.755Z,21.60
2018-11-25T04:35:16.582Z,23.20
2018-11-25T04:37:45.398Z,20.27
2018-11-25T04:40:16.259Z,21.60
2018-11-25T04:42:45.281Z,20.93
2018-11-25T04:45:15.865Z,23.93
2018-11-25T04:47:45.319Z,24.40
2018-11-25T04:50:17.410Z,23.57
2018-11-25T04:52:46.487Z,22.90
2018-11-25T04:55:15.367Z,23.07
2018-11-25T04:57:51.726Z,24.33
2018-11-25T05:00:20.836Z,24.17
2018-11-25T05:02:50.367Z,22.80
2018-11-25T05:05:19.846Z,22.50
2018-11-25T05:07:48.784Z,23.60
2018-11-25T05:10:18.417Z,22.13
2018-11-25T05:12:47.681Z,22.30
2018-11-25T05:15:18.743Z,22.40
2018-11-25T05:17:48.076Z,20.70
2018-11-25T05:20:17.293Z,22.87
2018-11-25T05:22:46.194Z,21.40
2018-11-25T05:25:16.945Z,23.00
2018-11-25T05:27:45.924Z,22.87
2018-11-25T05:30:16.629Z,23.33
2018-11-25T05:32:45.704Z,24.03
2018-11-25T05:35:15.669Z,23.73
2018-11-25T05:37:44.548Z,23.63
2018-11-25T05:40:15.164Z,25.53
2018-11-25T05:42:43.992Z,23.17
2018-11-25T05:45:17.841Z,25.50
2018-11-25T05:47:46.456Z,24.90
2018-11-25T05:50:17.902Z,29.60
2018-11-25T05:52:46.421Z,27.73
2018-11-25T05:55:15.175Z,28.37
2018-11-25T05:57:44.028Z,28.23
2018-11-25T06:00:15.112Z,26.33
2018-11-25T06:02:44.406Z,26.27
2018-11-25T06:05:13.353Z,26.57
2018-11-25T06:07:42.216Z,27.83
2018-11-25T06:10:12.265Z,27.67
2018-11-25T06:12:41.196Z,25.40
2018-11-25T06:15:11.760Z,28.07
2018-11-25T06:17:40.653Z,26.27
2018-11-25T06:20:12.901Z,29.10
2018-11-25T06:22:41.603Z,27.83
2018-11-25T06:25:11.619Z,29.20
2018-11-25T06:27:40.346Z,29.50
2018-11-25T06:30:16.315Z,31.80
2018-11-25T06:32:45.142Z,39.50
2018-11-25T06:35:14.875Z,39.50
2018-11-25T06:37:43.484Z,34.83
2018-11-25T06:40:19.460Z,35.63
2018-11-25T06:42:48.112Z,38.50
2018-11-25T06:45:21.033Z,37.40
2018-11-25T06:47:49.636Z,38.63
2018-11-25T06:50:18.272Z,36.53
2018-11-25T06:52:46.936Z,39.60
2018-11-25T06:55:15.412Z,36.80
2018-11-25T06:57:43.936Z,34.00
2018-11-25T07:00:14.891Z,38.93
2018-11-25T07:02:43.850Z,40.90
2018-11-25T07:05:12.428Z,39.60
2018-11-25T07:07:40.955Z,37.83
2018-11-25T07:10:14.468Z,36.13
2018-11-25T07:12:46.441Z,38.10
2018-11-25T07:15:16.049Z,36.97
2018-11-25T07:17:44.787Z,32.73
2018-11-25T07:20:14.362Z,32.27
2018-11-25T07:22:43.195Z,33.70
2018-11-25T07:25:17.111Z,33.30
2018-11-25T07:27:45.654Z,37.17
2018-11-25T07:30:17.455Z,33.93
2018-11-25T07:32:45.936Z,45.17
2018-11-25T07:35:14.638Z,54.77
2018-11-25T07:37:43.664Z,49.37
2018-11-25T07:40:16.361Z,53.70
2018-11-25T07:42:45.293Z,57.30
2018-11-25T07:45:16.893Z,52.13
2018-11-25T07:47:45.793Z,55.53
2018-11-25T07:50:14.523Z,49.13
2018-11-25T07:52:44.099Z,50.33
2018-11-25T07:55:15.615Z,43.50
2018-11-25T07:57:44.762Z,39.50
2018-11-25T08:00:18.267Z,32.60
2018-11-25T08:02:46.817Z,29.03
2018-11-25T08:05:17.972Z,28.43
2018-11-25T08:07:46.516Z,24.03
2018-11-25T08:10:15.900Z,23.80
2018-11-25T08:12:45.415Z,22.57
2018-11-25T08:15:15.079Z,25.17
2018-11-25T08:17:43.810Z,23.73
2018-11-25T08:20:15.179Z,26.10
2018-11-25T08:22:43.962Z,24.93
2018-11-25T08:25:14.608Z,25.87
2018-11-25T08:27:43.403Z,24.30
2018-11-25T08:30:15.051Z,26.07
2018-11-25T08:32:43.826Z,24.57
2018-11-25T08:35:13.338Z,26.13
2018-11-25T08:37:42.126Z,30.30
2018-11-25T08:40:12.858Z,30.50
2018-11-25T08:42:41.617Z,31.73
2018-11-25T08:45:11.246Z,32.97
2018-11-25T08:47:39.841Z,33.00
2018-11-25T08:50:13.655Z,32.97
2018-11-25T08:52:43.242Z,30.03
2018-11-25T08:55:17.037Z,28.60
2018-11-25T08:57:46.149Z,30.13
2018-11-25T09:00:20.098Z,31.27
2018-11-25T09:02:49.773Z,33.00
2018-11-25T09:05:18.692Z,29.87
2018-11-25T09:07:47.745Z,30.37
2018-11-25T09:10:17.627Z,29.23
2018-11-25T09:12:55.130Z,27.67
2018-11-25T09:15:20.503Z,26.47
2018-11-25T09:17:49.225Z,31.60
2018-11-25T09:20:19.946Z,30.23
2018-11-25T09:22:48.645Z,28.73
2018-11-25T09:25:28.327Z,28.03
2018-11-25T09:27:57.517Z,35.97
2018-11-25T09:30:27.622Z,32.70
2018-11-25T09:32:56.321Z,34.17
2018-11-25T09:35:25.271Z,36.43
2018-11-25T09:37:54.071Z,37.77
2018-11-25T09:40:24.876Z,34.73
2018-11-25T09:42:53.894Z,31.90
2018-11-25T09:45:22.421Z,36.13
2018-11-25T09:47:51.492Z,31.17
2018-11-25T09:50:22.361Z,30.30
2018-11-25T09:52:51.110Z,32.90
2018-11-25T09:55:24.254Z,41.30
2018-11-25T09:57:54.883Z,31.60
2018-11-25T10:00:26.845Z,28.90
2018-11-25T10:02:55.600Z,31.27
2018-11-25T10:05:24.290Z,28.27
2018-11-25T10:07:53.281Z,28.37
2018-11-25T10:10:22.934Z,28.73
2018-11-25T10:12:51.570Z,26.93
2018-11-25T10:15:24.596Z,33.87
2018-11-25T10:17:59.507Z,31.97
2018-11-25T10:20:24.039Z,27.17
2018-11-25T10:22:52.968Z,26.03
2018-11-25T10:25:21.660Z,29.43
2018-11-25T10:27:50.320Z,27.40
2018-11-25T10:30:23.093Z,26.40
2018-11-25T10:32:53.925Z,28.37
2018-11-25T10:35:22.728Z,28.23
2018-11-25T10:37:51.781Z,29.93
2018-11-25T10:40:21.498Z,28.83
2018-11-25T10:42:50.073Z,28.17
2018-11-25T10:45:21.999Z,28.00
2018-11-25T10:47:50.678Z,26.87
2018-11-25T10:50:20.064Z,27.23
2018-11-25T10:52:49.103Z,26.77
2018-11-25T10:55:20.869Z,25.30
2018-11-25T10:57:50.598Z,26.80
2018-11-25T11:00:33.890Z,23.90
2018-11-25T11:03:07.950Z,22.03
2018-11-25T11:05:42.595Z,21.80
2018-11-25T11:08:11.518Z,22.17
2018-11-25T11:10:40.354Z,22.10
2018-11-25T11:13:09.360Z,19.57
2018-11-25T11:15:38.574Z,21.43
2018-11-25T11:18:07.787Z,20.83
2018-11-25T11:20:36.651Z,22.83
2018-11-25T11:23:06.014Z,21.63
2018-11-25T11:25:34.886Z,22.03
2018-11-25T11:28:04.975Z,20.20
2018-11-25T11:30:33.950Z,19.20
2018-11-25T11:33:02.475Z,19.73
2018-11-25T11:35:31.107Z,22.17
2018-11-25T11:37:59.601Z,22.27
2018-11-25T11:40:28.297Z,23.83
2018-11-25T11:42:57.115Z,24.80
2018-11-25T11:45:25.714Z,28.53
2018-11-25T11:47:54.198Z,33.37
2018-11-25T11:50:23.052Z,32.57
2018-11-25T11:52:51.652Z,34.20
2018-11-25T11:55:20.235Z,36.00
2018-11-25T11:57:49.120Z,35.37
2018-11-25T12:00:21.106Z,35.27
2018-11-25T12:02:49.793Z,37.10
2018-11-25T12:05:18.327Z,37.37
2018-11-25T12:07:46.880Z,35.90
2018-11-25T12:10:16.356Z,39.67
2018-11-25T12:12:44.917Z,43.27
2018-11-25T12:15:16.873Z,43.83
2018-11-25T12:17:45.645Z,45.17
2018-11-25T12:20:14.196Z,46.50
2018-11-25T12:22:42.991Z,49.33
2018-11-25T12:25:13.127Z,45.70
2018-11-25T12:27:41.788Z,46.50
2018-11-25T12:30:11.634Z,47.17
2018-11-25T12:32:40.377Z,45.13
2018-11-25T12:35:10.217Z,40.57
2018-11-25T12:37:38.789Z,42.00
2018-11-25T12:40:10.942Z,41.03
2018-11-25T12:42:40.296Z,40.20
2018-11-25T12:45:10.705Z,39.40
2018-11-25T12:47:40.356Z,39.57
2018-11-25T12:50:11.274Z,39.17
2018-11-25T12:52:40.641Z,42.60
2018-11-25T12:55:13.221Z,41.37
2018-11-25T12:57:42.575Z,38.00
2018-11-25T13:00:24.944Z,39.87
2018-11-25T13:02:54.475Z,40.03
2018-11-25T13:05:23.783Z,42.40
2018-11-25T13:07:53.161Z,44.00
2018-11-25T13:10:22.789Z,43.57
2018-11-25T13:12:52.135Z,43.03
2018-11-25T13:15:21.461Z,43.27
2018-11-25T13:17:51.167Z,44.30
2018-11-25T13:20:20.616Z,43.10
2018-11-25T13:22:50.229Z,42.60
2018-11-25T13:25:20.066Z,45.03
2018-11-25T13:27:50.037Z,44.60
2018-11-25T13:30:22.360Z,44.53
2018-11-25T13:32:53.362Z,44.47
2018-11-25T13:35:23.045Z,40.03
2018-11-25T13:37:52.392Z,43.40
2018-11-25T13:40:21.766Z,41.60
2018-11-25T13:42:51.340Z,40.90
2018-11-25T13:45:20.564Z,44.47
2018-11-25T13:47:49.857Z,40.83
2018-11-25T13:50:20.191Z,41.90
2018-11-25T13:52:49.522Z,41.57
2018-11-25T13:55:20.758Z,42.57
2018-11-25T13:57:50.928Z,44.80
2018-11-25T14:00:31.935Z,43.37
2018-11-25T14:03:01.622Z,44.47
2018-11-25T14:05:31.110Z,49.27
2018-11-25T14:08:00.950Z,49.73
2018-11-25T14:10:32.150Z,52.10
2018-11-25T14:13:01.469Z,49.03
2018-11-25T14:15:30.926Z,47.27
2018-11-25T14:18:01.190Z,47.77
2018-11-25T14:20:30.810Z,47.13
2018-11-25T14:23:00.600Z,46.10
2018-11-25T14:25:30.345Z,42.07
2018-11-25T14:28:02.860Z,44.87
2018-11-25T14:30:33.260Z,42.87
2018-11-25T14:33:02.738Z,42.13
2018-11-25T14:35:32.146Z,41.63
2018-11-25T14:38:01.829Z,42.47
2018-11-25T14:40:31.281Z,44.30
2018-11-25T14:43:00.579Z,41.83
2018-11-25T14:45:30.321Z,33.87
2018-11-25T14:47:59.728Z,33.37
2018-11-25T14:50:29.040Z,34.43
2018-11-25T14:52:58.337Z,35.23
2018-11-25T14:55:27.583Z,37.53
2018-11-25T14:57:56.564Z,38.97
2018-11-25T15:00:25.075Z,40.13
2018-11-25T15:02:58.550Z,39.30
2018-11-25T15:05:34.212Z,41.87
2018-11-25T15:08:03.416Z,42.00
2018-11-25T15:10:32.077Z,42.13
2018-11-25T15:13:00.720Z,42.83
2018-11-25T15:15:29.700Z,42.40
2018-11-25T15:17:58.233Z,41.00
2018-11-25T15:20:26.865Z,39.13
2018-11-25T15:22:57.440Z,37.00
2018-11-25T15:25:28.818Z,38.00
2018-11-25T15:27:58.230Z,36.80
2018-11-25T15:30:26.818Z,36.33
2018-11-25T15:32:55.495Z,36.17
2018-11-25T15:35:24.081Z,36.13
2018-11-25T15:37:53.835Z,34.27
2018-11-25T15:40:29.621Z,36.77
2018-11-25T15:42:58.395Z,35.03
2018-11-25T15:45:26.925Z,35.07
2018-11-25T15:48:01.590Z,37.60
2018-11-25T15:50:30.808Z,39.60
2018-11-25T15:52:59.458Z,41.33
2018-11-25T15:55:28.504Z,39.93
2018-11-25T15:57:57.005Z,41.73
2018-11-25T16:00:25.959Z,43.20
2018-11-25T16:02:54.722Z,43.37
2018-11-25T16:05:25.733Z,44.70
2018-11-25T16:07:54.417Z,42.80
2018-11-25T16:10:27.912Z,42.40
2018-11-25T16:12:56.656Z,43.97
2018-11-25T16:15:27.100Z,46.93
2018-11-25T16:17:55.941Z,44.73
2018-11-25T16:20:26.036Z,46.43
2018-11-25T16:23:05.122Z,48.77
2018-11-25T16:25:49.744Z,49.00
2018-11-25T16:28:40.186Z,50.23
2018-11-25T16:31:09.008Z,47.00
2018-11-25T16:33:37.852Z,48.33
2018-11-25T16:36:06.957Z,48.13
2018-11-25T16:38:35.834Z,49.43
2018-11-25T16:41:04.863Z,52.77
2018-11-25T16:43:33.878Z,52.00
2018-11-25T16:46:02.656Z,51.63
2018-11-25T16:48:31.552Z,55.47
2018-11-25T16:51:00.365Z,56.77
2018-11-25T16:53:29.330Z,59.77
2018-11-25T16:55:57.868Z,67.80
2018-11-25T16:58:26.291Z,70.10
2018-11-25T17:00:55.138Z,64.97
2018-11-25T17:03:23.554Z,62.40
2018-11-25T17:05:52.812Z,57.70
2018-11-25T17:08:31.426Z,57.67
2018-11-25T17:11:01.797Z,55.83
2018-11-25T17:13:29.114Z,57.17
2018-11-25T17:15:57.707Z,57.47
2018-11-25T17:18:26.110Z,55.23
2018-11-25T17:20:54.589Z,56.83
2018-11-25T17:23:23.244Z,55.23
2018-11-25T17:25:51.731Z,55.03
2018-11-25T17:28:20.189Z,54.73
2018-11-25T17:30:48.581Z,51.20
2018-11-25T17:33:17.035Z,46.37
2018-11-25T17:35:45.555Z,46.43
2018-11-25T17:38:14.085Z,44.67
2018-11-25T17:40:42.593Z,46.30
2018-11-25T17:43:15.217Z,46.37
2018-11-25T17:45:43.725Z,48.77
2018-11-25T17:48:12.266Z,47.67
2018-11-25T17:50:40.712Z,45.07
2018-11-25T17:53:12.423Z,47.00
2018-11-25T17:55:41.089Z,51.30
2018-11-25T17:58:09.509Z,46.30
2018-11-25T18:00:46.672Z,52.17
2018-11-25T18:03:22.886Z,47.40
2018-11-25T18:05:51.355Z,52.30
2018-11-25T18:08:20.095Z,49.97
2018-11-25T18:10:48.757Z,51.80
2018-11-25T18:13:18.452Z,50.27
2018-11-25T18:15:47.061Z,50.93
2018-11-25T18:18:41.280Z,52.60
2018-11-25T18:21:15.208Z,52.07
2018-11-25T18:23:44.165Z,45.97
2018-11-25T18:26:12.973Z,47.17
2018-11-25T18:28:41.577Z,46.30
2018-11-25T18:31:10.822Z,45.30
2018-11-25T18:33:39.403Z,41.97
2018-11-25T18:36:09.726Z,47.63
2018-11-25T18:38:38.129Z,45.97
2018-11-25T18:41:06.668Z,45.20
2018-11-25T18:43:35.507Z,47.07
2018-11-25T18:46:04.302Z,44.27
2018-11-25T18:48:33.937Z,43.87
2018-11-25T18:51:02.852Z,46.73
2018-11-25T18:53:32.054Z,43.03
2018-11-25T18:56:01.097Z,45.33
2018-11-25T18:58:30.653Z,44.87
2018-11-25T19:01:20.180Z,47.97
2018-11-25T19:03:49.116Z,47.30
2018-11-25T19:06:17.952Z,49.70
2018-11-25T19:08:46.806Z,53.13
2018-11-25T19:11:15.765Z,61.20
2018-11-25T19:13:44.554Z,57.30
2018-11-25T19:16:13.002Z,61.93
2018-11-25T19:18:41.498Z,54.90
2018-11-25T19:21:09.965Z,60.10
2018-11-25T19:23:38.431Z,55.53
2018-11-25T19:26:07.521Z,54.93
2018-11-25T19:28:35.967Z,54.10
2018-11-25T19:31:04.470Z,57.27
2018-11-25T19:33:33.070Z,56.00
2018-11-25T19:36:01.517Z,54.73
2018-11-25T19:38:30.074Z,54.43
2018-11-25T19:40:58.548Z,56.47
2018-11-25T19:43:27.133Z,51.63
2018-11-25T19:45:55.584Z,53.57
2018-11-25T19:48:24.052Z,51.83
2018-11-25T19:50:52.587Z,47.93
2018-11-25T19:53:21.022Z,45.97
2018-11-25T19:55:49.566Z,44.70
2018-11-25T19:58:18.368Z,42.40
2018-11-25T20:00:47.026Z,42.27
2018-11-25T20:03:15.496Z,42.97
2018-11-25T20:05:44.252Z,41.10
2018-11-25T20:08:12.901Z,41.53
2018-11-25T20:10:42.024Z,41.97
2018-11-25T20:13:11.910Z,41.83
2018-11-25T20:15:39.474Z,42.10
2018-11-25T20:18:09.384Z,48.07
2018-11-25T20:20:38.845Z,54.43
2018-11-25T20:23:07.413Z,53.80
2018-11-25T20:25:36.273Z,47.40
2018-11-25T20:28:04.815Z,48.17
2018-11-25T20:30:33.869Z,46.53
2018-11-25T20:33:07.793Z,46.13
2018-11-25T20:35:36.212Z,46.80
2018-11-25T20:38:11.245Z,46.30
2018-11-25T20:40:39.639Z,47.07
2018-11-25T20:43:08.153Z,48.40
2018-11-25T20:45:42.089Z,47.33
2018-11-25T20:48:10.662Z,44.47
2018-11-25T20:50:39.166Z,48.07
2018-11-25T20:53:12.984Z,45.40
2018-11-25T20:55:41.309Z,45.70
2018-11-25T20:58:09.951Z,43.67
2018-11-25T21:00:39.748Z,42.20
2018-11-25T21:03:09.521Z,44.63
2018-11-25T21:05:38.038Z,45.30
2018-11-25T21:08:07.089Z,49.30
2018-11-25T21:10:36.080Z,45.83
2018-11-25T21:13:04.573Z,45.50
2018-11-25T21:15:33.146Z,52.07
2018-11-25T21:18:01.688Z,57.23
2018-11-25T21:20:30.081Z,55.10
2018-11-25T21:22:59.031Z,54.97
2018-11-25T21:25:27.401Z,58.07
2018-11-25T21:27:55.777Z,54.17
2018-11-25T21:30:25.714Z,58.37
2018-11-25T21:32:56.212Z,56.70
2018-11-25T21:35:24.914Z,55.23
2018-11-25T21:37:54.761Z,54.10
2018-11-25T21:40:24.436Z,55.90
2018-11-25T21:42:52.977Z,51.77
2018-11-25T21:45:22.306Z,52.77
2018-11-25T21:47:50.970Z,54.00
2018-11-25T21:50:28.253Z,55.10
2018-11-25T21:52:56.684Z,56.00
2018-11-25T21:55:25.273Z,52.93
2018-11-25T21:57:53.828Z,55.93
2018-11-25T22:00:23.390Z,55.17
2018-11-25T22:02:51.977Z,55.00
2018-11-25T22:05:24.660Z,53.03
2018-11-25T22:07:49.260Z,51.23
2018-11-25T22:10:18.963Z,54.13
2018-11-25T22:12:48.024Z,55.57
2018-11-25T22:15:17.610Z,53.17
2018-11-25T22:17:46.066Z,53.27
2018-11-25T22:20:15.241Z,50.13
2018-11-25T22:22:43.757Z,50.63
2018-11-25T22:25:13.138Z,47.23
2018-11-25T22:27:41.592Z,48.43
2018-11-25T22:30:11.705Z,47.57
2018-11-25T22:32:40.645Z,46.43
2018-11-25T22:35:13.183Z,44.57
2018-11-25T22:37:42.240Z,44.43
2018-11-25T22:40:12.089Z,43.97
2018-11-25T22:42:41.517Z,43.00
2018-11-25T22:45:13.513Z,42.80
2018-11-25T22:47:42.265Z,43.83
2018-11-25T22:50:15.079Z,41.83
2018-11-25T22:52:44.058Z,42.03
2018-11-25T22:55:14.175Z,42.60
2018-11-25T22:57:43.171Z,40.43
2018-11-25T23:00:44.129Z,38.07
2018-11-25T23:03:12.941Z,37.07
2018-11-25T23:05:52.970Z,37.77
2018-11-25T23:08:21.669Z,38.27
2018-11-25T23:10:53.580Z,36.90
2018-11-25T23:13:22.534Z,37.93
2018-11-25T23:15:51.689Z,34.80
2018-11-25T23:18:20.655Z,38.57
2018-11-25T23:20:49.477Z,40.07
2018-11-25T23:23:18.397Z,39.73
2018-11-25T23:25:47.145Z,38.43
2018-11-25T23:28:15.981Z,37.83
2018-11-25T23:30:44.933Z,37.63
2018-11-25T23:33:13.772Z,39.23
2018-11-25T23:39:22.597Z,39.20
2018-11-25T23:41:55.397Z,36.73
2018-11-25T23:44:25.975Z,38.40
2018-11-25T23:47:02.032Z,37.70
2018-11-25T23:49:41.370Z,39.70
2018-11-25T23:52:13.696Z,38.90
2018-11-25T23:54:47.684Z,38.17
2018-11-25T23:57:23.810Z,37.53
2018-11-25T23:59:55.582Z,37.10
